KDFI

Defiance Memorial Airport

Defiance, Ohio, USA
METAR KDFI 190453Z AUTO 35003KT 10SM BKN085 22/19 A2995 RMK AO2 SLP137 T02220194 403220156
Observed Flight Rules
Sep-19 @ 04:53 UTC (33 minutes ago) Visual Flight Rules
Wind Visibility Clouds
350° at 3 knots 10 miles
  • Broken at 8,500' AGL
Temperatures Readings
Current 22°C / 72°F
Dewpoint 19°C / 66°F
Humidity 83%
Altimeter 29.95" Hg
Pressure 1013.7 hPa
Elevation 219
METAR KDFI 190453Z AUTO 35003KT 10SM BKN085 22/19 A2995 RMK AO2 SLP137 T02220194 403220156
Observed Flight Rules
Sep-19 @ 04:53 UTC
(33 minutes ago)
VFR
Wind Visibility
350° at 3 knots 10 miles
Clouds
  • Broken at 8,500' AGL
Temperature Dewpoint
22°C / 72°F 19°C / 66°F
Humidity Altimeter Pressure
83% 29.95" Hg 1013.7 hPa